createdAt,value
2022-08-03T00:00:26.537Z,100.00
2022-08-03T00:02:54.124Z,100.00
2022-08-03T00:05:21.150Z,100.00
2022-08-03T00:07:48.541Z,100.00
2022-08-03T00:10:16.713Z,100.00
2022-08-03T00:12:43.627Z,100.00
2022-08-03T00:15:11.321Z,100.00
2022-08-03T00:17:52.384Z,100.00
2022-08-03T00:20:22.244Z,100.00
2022-08-03T00:22:49.745Z,100.00
2022-08-03T00:25:16.719Z,100.00
2022-08-03T00:27:43.500Z,100.00
2022-08-03T00:30:10.774Z,100.00
2022-08-03T00:32:41.371Z,100.00
2022-08-03T00:35:29.984Z,100.00
2022-08-03T00:37:59.130Z,100.00
2022-08-03T00:40:26.070Z,100.00
2022-08-03T00:43:01.145Z,100.00
2022-08-03T00:45:31.568Z,100.00
2022-08-03T00:47:59.353Z,100.00
2022-08-03T00:50:28.786Z,100.00
2022-08-03T00:52:58.740Z,100.00
2022-08-03T00:55:26.095Z,100.00
2022-08-03T00:57:53.147Z,100.00
2022-08-03T01:00:27.823Z,100.00
2022-08-03T01:02:54.909Z,100.00
2022-08-03T01:05:21.943Z,100.00
2022-08-03T01:08:00.712Z,100.00
2022-08-03T01:10:33.431Z,100.00
2022-08-03T01:13:06.264Z,100.00
2022-08-03T01:16:01.727Z,100.00
2022-08-03T01:18:41.687Z,100.00
2022-08-03T01:21:12.601Z,100.00
2022-08-03T01:23:40.514Z,100.00
2022-08-03T01:26:27.144Z,100.00
2022-08-03T01:29:06.143Z,100.00
2022-08-03T01:33:02.302Z,100.00
2022-08-03T01:34:26.603Z,100.00
2022-08-03T01:36:57.395Z,100.00
2022-08-03T01:39:25.092Z,100.00
2022-08-03T01:41:58.637Z,100.00
2022-08-03T01:44:31.119Z,100.00
2022-08-03T01:47:00.233Z,100.00
2022-08-03T01:49:39.260Z,100.00
2022-08-03T01:52:06.828Z,100.00
2022-08-03T01:54:38.166Z,100.00
2022-08-03T01:57:05.382Z,100.00
2022-08-03T01:59:34.978Z,100.00
2022-08-03T02:02:15.612Z,100.00
2022-08-03T02:04:50.938Z,100.00
2022-08-03T02:07:18.376Z,100.00
2022-08-03T02:09:47.397Z,100.00
2022-08-03T02:12:15.622Z,100.00
2022-08-03T02:14:44.806Z,100.00
2022-08-03T02:17:13.037Z,100.00
2022-08-03T02:19:41.237Z,100.00
2022-08-03T02:22:10.457Z,100.00
2022-08-03T02:24:37.713Z,100.00
2022-08-03T02:27:06.839Z,100.00
2022-08-03T02:29:39.847Z,100.00
2022-08-03T02:32:10.450Z,100.00
2022-08-03T02:34:38.331Z,100.00
2022-08-03T02:37:06.306Z,100.00
2022-08-03T02:39:36.004Z,100.00
2022-08-03T02:42:03.303Z,100.00
2022-08-03T02:44:35.073Z,100.00
2022-08-03T02:47:08.341Z,100.00
2022-08-03T02:49:50.962Z,100.00
2022-08-03T02:52:20.398Z,100.00
2022-08-03T02:54:49.078Z,100.00
2022-08-03T02:57:17.141Z,100.00
2022-08-03T02:59:45.088Z,100.00
2022-08-03T03:02:12.532Z,100.00
2022-08-03T03:05:50.660Z,100.00
2022-08-03T03:07:27.526Z,100.00
2022-08-03T03:09:56.526Z,100.00
2022-08-03T03:12:24.828Z,100.00
2022-08-03T03:14:51.535Z,100.00
2022-08-03T03:17:18.896Z,100.00
2022-08-03T03:19:45.895Z,100.00
2022-08-03T03:22:12.914Z,100.00
2022-08-03T03:24:40.170Z,100.00
2022-08-03T03:27:08.206Z,100.00
2022-08-03T03:29:39.458Z,100.00
2022-08-03T03:32:09.258Z,100.00
2022-08-03T03:34:36.933Z,100.00
2022-08-03T03:37:03.893Z,100.00
2022-08-03T03:39:30.923Z,100.00
2022-08-03T03:41:58.304Z,100.00
2022-08-03T03:44:29.127Z,100.00
2022-08-03T03:46:59.105Z,100.00
2022-08-03T03:49:26.889Z,100.00
2022-08-03T03:51:55.179Z,100.00
2022-08-03T03:54:22.341Z,100.00
2022-08-03T03:56:52.616Z,100.00
2022-08-03T03:59:19.473Z,100.00
2022-08-03T04:01:46.583Z,100.00
2022-08-03T04:04:32.102Z,100.00
2022-08-03T04:07:17.650Z,100.00
2022-08-03T04:10:14.806Z,100.00
2022-08-03T04:12:50.058Z,100.00
2022-08-03T04:15:21.100Z,100.00
2022-08-03T04:17:50.578Z,100.00
2022-08-03T04:20:20.788Z,100.00
2022-08-03T04:22:51.501Z,100.00
2022-08-03T04:25:21.064Z,100.00
2022-08-03T04:28:21.019Z,100.00
2022-08-03T04:30:47.664Z,100.00
2022-08-03T04:33:16.548Z,100.00
2022-08-03T04:36:02.382Z,98.12
2022-08-03T04:38:33.112Z,89.27
2022-08-03T04:41:01.249Z,83.74
2022-08-03T04:43:29.543Z,79.24
2022-08-03T04:45:57.116Z,78.00
2022-08-03T04:48:24.706Z,75.89
2022-08-03T04:50:52.078Z,73.90
2022-08-03T04:53:19.549Z,69.41
2022-08-03T04:55:46.962Z,66.75
2022-08-03T04:58:13.861Z,63.80
2022-08-03T05:00:40.732Z,63.97
2022-08-03T05:03:20.209Z,60.28
2022-08-03T05:06:02.004Z,58.54
2022-08-03T05:08:46.159Z,54.04
2022-08-03T05:11:15.447Z,55.25
2022-08-03T05:13:42.375Z,54.01
2022-08-03T05:16:09.380Z,54.35
2022-08-03T05:18:36.199Z,54.65
2022-08-03T05:21:03.009Z,55.61
2022-08-03T05:23:29.765Z,52.16
2022-08-03T05:25:56.933Z,50.87
2022-08-03T05:28:23.751Z,52.18
2022-08-03T05:30:50.541Z,57.69
2022-08-03T05:33:17.350Z,64.99
2022-08-03T05:36:01.124Z,71.64
2022-08-03T05:38:34.932Z,78.17
2022-08-03T05:41:21.021Z,83.34
2022-08-03T05:43:49.304Z,86.02
2022-08-03T05:46:16.742Z,84.40
2022-08-03T05:48:44.107Z,85.63
2022-08-03T05:51:13.740Z,87.63
2022-08-03T05:53:42.183Z,87.95
2022-08-03T05:56:13.875Z,89.38
2022-08-03T05:58:43.068Z,90.03
2022-08-03T06:01:09.823Z,86.90
2022-08-03T06:03:36.453Z,85.09
2022-08-03T06:06:03.418Z,79.03
2022-08-03T06:08:30.242Z,63.20
2022-08-03T06:10:56.866Z,54.52
2022-08-03T06:13:23.549Z,45.22
2022-08-03T06:15:50.343Z,41.91
2022-08-03T06:18:17.098Z,40.40
2022-08-03T06:20:43.758Z,38.57
2022-08-03T06:23:16.164Z,38.67
2022-08-03T06:25:44.823Z,38.22
2022-08-03T06:28:35.198Z,38.49
2022-08-03T06:30:59.374Z,38.36
2022-08-03T06:34:31.426Z,39.44
2022-08-03T06:36:13.765Z,39.89
2022-08-03T06:38:40.511Z,40.01
2022-08-03T06:41:07.150Z,39.33
2022-08-03T06:43:38.055Z,37.26
2022-08-03T06:46:24.856Z,35.93
2022-08-03T06:48:53.153Z,34.24
2022-08-03T06:51:19.902Z,34.17
2022-08-03T06:53:46.525Z,32.69
2022-08-03T06:56:13.204Z,31.15
2022-08-03T06:58:39.939Z,32.00
2022-08-03T07:01:06.642Z,31.57
2022-08-03T07:03:33.325Z,32.45
2022-08-03T07:06:00.011Z,32.06
2022-08-03T07:08:33.216Z,31.25
2022-08-03T07:11:01.481Z,31.15
2022-08-03T07:13:28.212Z,31.36
2022-08-03T07:15:56.396Z,31.12
2022-08-03T07:18:27.627Z,30.28
2022-08-03T07:20:56.591Z,30.97
2022-08-03T07:23:23.263Z,31.42
2022-08-03T07:25:51.990Z,32.13
2022-08-03T07:28:19.631Z,31.36
2022-08-03T07:30:46.278Z,31.17
2022-08-03T07:33:12.935Z,32.13
2022-08-03T07:35:39.619Z,30.93
2022-08-03T07:38:06.312Z,29.28
2022-08-03T07:40:32.943Z,29.06
2022-08-03T07:43:00.426Z,28.66
2022-08-03T07:45:27.303Z,28.90
2022-08-03T07:47:54.442Z,27.26
2022-08-03T07:50:22.801Z,27.99
2022-08-03T07:52:52.430Z,27.96
2022-08-03T07:55:21.966Z,29.83
2022-08-03T07:58:10.117Z,29.58
2022-08-03T08:00:37.403Z,29.14
2022-08-03T08:03:05.187Z,29.38
2022-08-03T08:05:32.329Z,28.53
2022-08-03T08:07:59.276Z,28.52
2022-08-03T08:10:26.124Z,27.80
2022-08-03T08:12:53.037Z,28.02
2022-08-03T08:15:19.775Z,27.19
2022-08-03T08:17:54.913Z,26.97
2022-08-03T08:20:33.543Z,27.40
2022-08-03T08:23:03.439Z,26.66
2022-08-03T08:25:34.547Z,26.84
2022-08-03T08:28:22.220Z,27.66
2022-08-03T08:30:51.537Z,27.13
2022-08-03T08:33:23.075Z,26.77
2022-08-03T08:35:52.099Z,26.86
2022-08-03T08:38:18.764Z,26.37
2022-08-03T08:40:45.874Z,26.29
2022-08-03T08:43:12.463Z,26.64
2022-08-03T08:45:40.786Z,26.01
2022-08-03T08:48:08.504Z,26.00
2022-08-03T08:50:37.497Z,25.21
2022-08-03T08:53:06.310Z,25.37
2022-08-03T08:55:59.131Z,25.82
2022-08-03T08:58:26.491Z,26.62
2022-08-03T09:00:53.296Z,26.58
2022-08-03T09:03:26.159Z,26.15
2022-08-03T09:05:57.646Z,26.05
2022-08-03T09:08:24.419Z,26.15
2022-08-03T09:10:51.061Z,25.75
2022-08-03T09:13:17.680Z,25.58
2022-08-03T09:15:53.323Z,25.04
2022-08-03T09:18:32.606Z,25.89
2022-08-03T09:21:30.073Z,25.95
2022-08-03T09:24:02.798Z,26.14
2022-08-03T09:26:31.392Z,27.19
2022-08-03T09:29:11.248Z,26.72
2022-08-03T09:31:43.215Z,26.77
2022-08-03T09:34:11.537Z,26.81
2022-08-03T09:36:38.224Z,27.62
2022-08-03T09:39:06.574Z,27.38
2022-08-03T09:41:33.755Z,27.40
2022-08-03T09:44:00.526Z,28.04
2022-08-03T09:46:28.667Z,27.60
2022-08-03T09:49:11.539Z,28.09
2022-08-03T09:52:31.451Z,27.91
2022-08-03T09:54:31.627Z,27.44
2022-08-03T09:56:58.821Z,27.41
2022-08-03T09:59:32.349Z,27.86
2022-08-03T10:02:00.838Z,27.28
2022-08-03T10:04:28.513Z,27.62
2022-08-03T10:07:23.386Z,27.94
2022-08-03T10:10:29.347Z,27.60
2022-08-03T10:12:46.019Z,27.72
2022-08-03T10:16:20.300Z,28.10
2022-08-03T10:17:59.696Z,27.79
2022-08-03T10:20:26.924Z,28.01
2022-08-03T10:22:53.780Z,27.69
2022-08-03T10:25:20.795Z,27.83
2022-08-03T10:27:51.285Z,27.05
2022-08-03T10:30:18.355Z,27.14
2022-08-03T10:32:57.724Z,27.30
2022-08-03T10:35:25.884Z,27.93
2022-08-03T10:38:06.627Z,27.08
2022-08-03T10:40:47.947Z,28.02
2022-08-03T10:43:23.115Z,27.76
2022-08-03T10:45:50.654Z,28.14
2022-08-03T10:48:19.864Z,27.69
2022-08-03T10:50:49.492Z,27.28
2022-08-03T10:53:16.602Z,27.73
2022-08-03T10:56:05.712Z,27.69
2022-08-03T10:58:53.504Z,27.96
2022-08-03T11:01:59.867Z,27.75
2022-08-03T11:04:30.323Z,27.35
2022-08-03T11:07:19.442Z,27.09
2022-08-03T11:09:48.926Z,26.90
2022-08-03T11:12:31.350Z,27.41
2022-08-03T11:15:08.795Z,27.09
2022-08-03T11:17:46.820Z,26.66
2022-08-03T11:20:47.463Z,26.83
2022-08-03T11:23:15.313Z,26.80
2022-08-03T11:26:10.909Z,27.18
2022-08-03T11:28:41.460Z,26.61
2022-08-03T11:31:48.118Z,26.51
2022-08-03T11:34:12.546Z,26.33
2022-08-03T11:37:17.158Z,26.78
2022-08-03T11:39:46.835Z,26.58
2022-08-03T11:42:22.536Z,26.87
2022-08-03T11:44:57.098Z,27.07
2022-08-03T11:47:27.307Z,26.69
2022-08-03T11:49:59.236Z,27.11
2022-08-03T11:52:27.167Z,27.62
2022-08-03T11:54:56.738Z,27.07
2022-08-03T11:59:01.960Z,26.56
2022-08-03T12:00:32.750Z,27.95
2022-08-03T12:03:08.855Z,27.41
2022-08-03T12:05:38.371Z,27.16
2022-08-03T12:08:07.235Z,26.90
2022-08-03T12:10:35.141Z,27.18
2022-08-03T12:13:06.045Z,27.83
2022-08-03T12:15:53.647Z,28.12
2022-08-03T12:18:22.506Z,27.65
2022-08-03T12:20:52.158Z,27.48
2022-08-03T12:23:19.955Z,27.48
2022-08-03T12:25:48.241Z,27.33
2022-08-03T12:28:37.490Z,27.91
2022-08-03T12:31:12.828Z,27.00
2022-08-03T12:34:15.426Z,27.37
2022-08-03T12:36:56.764Z,26.69
2022-08-03T12:39:25.654Z,27.52
2022-08-03T12:41:56.230Z,27.62
2022-08-03T12:44:32.629Z,27.16
2022-08-03T12:47:00.033Z,27.58
2022-08-03T12:49:27.593Z,28.01
2022-08-03T12:52:05.378Z,27.85
2022-08-03T12:54:36.191Z,27.42
2022-08-03T12:57:02.944Z,27.73
2022-08-03T12:59:53.460Z,27.93
2022-08-03T13:02:26.306Z,27.05
2022-08-03T13:04:54.750Z,26.68
2022-08-03T13:07:22.888Z,27.05
2022-08-03T13:09:55.591Z,27.56
2022-08-03T13:12:25.411Z,27.68
2022-08-03T13:14:55.860Z,27.29
2022-08-03T13:17:23.176Z,28.12
2022-08-03T13:19:50.639Z,27.57
2022-08-03T13:22:29.217Z,28.22
2022-08-03T13:24:58.641Z,28.07
2022-08-03T13:28:04.552Z,27.08
2022-08-03T13:30:14.547Z,27.29
2022-08-03T13:32:51.997Z,27.93
2022-08-03T13:35:18.912Z,27.65
2022-08-03T13:37:46.883Z,27.98
2022-08-03T13:40:15.812Z,27.89
2022-08-03T13:42:42.625Z,28.02
2022-08-03T13:45:10.737Z,27.51
2022-08-03T13:47:38.117Z,27.08
2022-08-03T13:50:05.386Z,27.59
2022-08-03T13:52:34.217Z,26.82
2022-08-03T13:55:02.608Z,28.23
2022-08-03T13:58:04.668Z,28.02
2022-08-03T14:00:27.820Z,27.36
2022-08-03T14:03:10.822Z,27.47
2022-08-03T14:05:41.091Z,26.58
2022-08-03T14:08:08.415Z,27.58
2022-08-03T14:10:37.734Z,27.18
2022-08-03T14:13:05.648Z,27.45
2022-08-03T14:15:37.338Z,27.29
2022-08-03T14:18:12.685Z,27.30
2022-08-03T14:20:48.759Z,27.53
2022-08-03T14:23:17.839Z,27.04
2022-08-03T14:25:51.948Z,27.17
2022-08-03T14:28:23.318Z,26.62
2022-08-03T14:30:54.546Z,26.41
2022-08-03T14:33:22.193Z,27.36
2022-08-03T14:35:49.756Z,27.53
2022-08-03T14:38:17.572Z,27.06
2022-08-03T14:40:45.096Z,27.56
2022-08-03T14:43:12.037Z,27.58
2022-08-03T14:45:39.859Z,27.10
2022-08-03T14:50:30.491Z,27.45
2022-08-03T14:50:55.529Z,27.30
2022-08-03T14:53:22.654Z,26.64
2022-08-03T14:55:51.748Z,26.75
2022-08-03T14:58:21.441Z,26.97
2022-08-03T15:00:50.581Z,26.77
2022-08-03T15:03:20.631Z,26.07
2022-08-03T15:05:47.541Z,26.80
2022-08-03T15:08:14.386Z,26.66
2022-08-03T15:10:45.212Z,26.62
2022-08-03T15:13:13.442Z,26.12
2022-08-03T15:15:41.085Z,26.34
2022-08-03T15:18:07.965Z,26.71
2022-08-03T15:20:50.417Z,26.71
2022-08-03T15:23:18.323Z,26.40
2022-08-03T15:26:32.120Z,26.10
2022-08-03T15:28:32.936Z,26.37
2022-08-03T15:30:59.976Z,26.77
2022-08-03T15:33:26.742Z,26.82
2022-08-03T15:35:53.618Z,26.60
2022-08-03T15:38:25.801Z,26.46
2022-08-03T15:40:56.593Z,26.14
2022-08-03T15:43:24.250Z,26.23
2022-08-03T15:46:12.621Z,25.59
2022-08-03T15:48:38.955Z,26.16
2022-08-03T15:51:06.627Z,26.01
2022-08-03T15:53:34.520Z,25.86
2022-08-03T15:56:06.339Z,26.13
2022-08-03T15:59:03.550Z,26.10
2022-08-03T16:01:25.525Z,24.96
2022-08-03T16:03:52.581Z,26.35
2022-08-03T16:06:19.407Z,26.20
2022-08-03T16:08:56.799Z,26.16
2022-08-03T16:11:23.566Z,26.57
2022-08-03T16:14:12.468Z,26.45
2022-08-03T16:16:40.002Z,26.13
2022-08-03T16:19:07.099Z,26.79
2022-08-03T16:21:38.622Z,26.87
2022-08-03T16:24:15.351Z,26.57
2022-08-03T16:26:44.793Z,27.33
2022-08-03T16:29:23.268Z,27.00
2022-08-03T16:31:51.369Z,26.85
2022-08-03T16:34:18.328Z,27.04
2022-08-03T16:36:45.989Z,27.02
2022-08-03T16:39:12.865Z,27.27
2022-08-03T16:41:54.208Z,26.82
2022-08-03T16:44:31.060Z,26.94
2022-08-03T16:46:58.354Z,26.90
2022-08-03T16:49:53.838Z,26.98
2022-08-03T16:52:13.002Z,27.14
2022-08-03T16:54:40.040Z,27.11
2022-08-03T16:57:08.656Z,27.73
2022-08-03T16:59:36.737Z,27.67
2022-08-03T17:02:09.863Z,27.25
2022-08-03T17:04:36.971Z,28.05
2022-08-03T17:07:08.905Z,28.06
2022-08-03T17:09:38.354Z,28.43
2022-08-03T17:12:07.234Z,28.00
2022-08-03T17:14:34.393Z,28.30
2022-08-03T17:17:06.794Z,28.50
2022-08-03T17:19:39.670Z,28.50
2022-08-03T17:22:12.475Z,28.75
2022-08-03T17:24:44.262Z,29.07
2022-08-03T17:28:41.856Z,29.12
2022-08-03T17:30:13.488Z,29.32
2022-08-03T17:32:57.703Z,29.42
2022-08-03T17:35:34.512Z,29.49
2022-08-03T17:38:10.475Z,29.54
2022-08-03T17:40:48.252Z,30.06
2022-08-03T17:44:14.329Z,30.05
2022-08-03T17:46:10.612Z,30.24
2022-08-03T17:48:41.313Z,30.61
2022-08-03T17:51:17.281Z,30.91
2022-08-03T17:53:51.651Z,30.83
2022-08-03T17:56:40.717Z,30.99
2022-08-03T17:59:51.661Z,31.22
2022-08-03T18:02:47.593Z,32.28
2022-08-03T18:05:17.854Z,31.80
2022-08-03T18:07:59.552Z,31.96
2022-08-03T18:10:35.422Z,32.44
2022-08-03T18:13:14.957Z,32.44
2022-08-03T18:16:01.381Z,32.65
2022-08-03T18:18:40.829Z,32.92
2022-08-03T18:21:17.177Z,32.84
2022-08-03T18:23:50.152Z,32.95
2022-08-03T18:26:18.633Z,33.17
2022-08-03T18:28:45.396Z,33.47
2022-08-03T18:31:59.719Z,33.44
2022-08-03T18:34:16.448Z,34.70
2022-08-03T18:36:52.823Z,34.18
2022-08-03T18:39:22.917Z,34.43
2022-08-03T18:41:49.809Z,34.49
2022-08-03T18:44:53.549Z,35.58
2022-08-03T18:47:16.524Z,35.83
2022-08-03T18:50:25.018Z,36.23
2022-08-03T18:52:54.946Z,35.55
2022-08-03T18:55:35.266Z,35.39
2022-08-03T18:58:17.826Z,35.59
2022-08-03T19:01:04.507Z,36.57
2022-08-03T19:03:49.802Z,37.81
2022-08-03T19:06:21.293Z,37.99
2022-08-03T19:09:13.129Z,39.70
2022-08-03T19:12:12.616Z,40.98
2022-08-03T19:14:43.551Z,42.36
2022-08-03T19:17:12.303Z,44.44
2022-08-03T19:19:45.385Z,43.08
2022-08-03T19:22:19.598Z,42.27
2022-08-03T19:24:47.982Z,41.64
2022-08-03T19:27:15.909Z,38.62
2022-08-03T19:29:59.366Z,41.29
2022-08-03T19:32:30.385Z,41.10
2022-08-03T19:35:00.136Z,40.28
2022-08-03T19:37:35.664Z,41.41
2022-08-03T19:43:04.144Z,40.80
2022-08-03T19:48:29.839Z,44.29
2022-08-03T19:53:48.708Z,47.12
2022-08-03T19:56:17.102Z,47.37
2022-08-03T19:58:44.828Z,45.88
2022-08-03T20:01:21.511Z,43.40
2022-08-03T20:03:50.314Z,46.51
2022-08-03T20:06:18.211Z,44.73
2022-08-03T20:08:48.162Z,47.81
2022-08-03T20:11:18.687Z,45.74
2022-08-03T20:13:49.466Z,47.30
2022-08-03T20:16:16.738Z,45.88
2022-08-03T20:18:44.543Z,43.44
2022-08-03T20:21:15.701Z,46.13
2022-08-03T20:24:03.306Z,47.05
2022-08-03T20:26:31.416Z,48.10
2022-08-03T20:29:09.345Z,47.48
2022-08-03T20:31:37.777Z,46.40
2022-08-03T20:34:06.517Z,49.06
2022-08-03T20:36:33.431Z,47.09
2022-08-03T20:39:00.345Z,49.00
2022-08-03T20:41:27.354Z,46.68
2022-08-03T20:43:54.585Z,49.32
2022-08-03T20:46:29.621Z,47.01
2022-08-03T20:49:04.791Z,49.47
2022-08-03T20:51:50.263Z,48.80
2022-08-03T20:54:28.592Z,49.40
2022-08-03T20:56:56.851Z,50.41
2022-08-03T20:59:23.780Z,45.79
2022-08-03T21:01:51.043Z,48.73
2022-08-03T21:04:20.894Z,47.68
2022-08-03T21:07:01.165Z,47.14
2022-08-03T21:09:40.048Z,47.17
2022-08-03T21:12:15.389Z,48.42
2022-08-03T21:13:02.693Z,41.57
2022-08-03T21:13:02.897Z,42.49
2022-08-03T21:13:10.224Z,45.15
2022-08-03T21:14:57.669Z,47.79
2022-08-03T21:17:40.460Z,46.23
2022-08-03T21:20:10.612Z,48.74
2022-08-03T21:22:39.415Z,50.26
2022-08-03T21:25:09.440Z,55.36
2022-08-03T21:27:37.374Z,51.84
2022-08-03T21:30:08.788Z,53.16
2022-08-03T21:32:40.724Z,55.02
2022-08-03T21:35:11.060Z,57.57
2022-08-03T21:37:42.661Z,53.70
2022-08-03T21:40:12.278Z,55.22
2022-08-03T21:42:40.679Z,55.47
2022-08-03T21:45:13.937Z,57.31
2022-08-03T21:47:44.156Z,55.30
2022-08-03T21:50:13.335Z,52.71
2022-08-03T21:52:43.352Z,53.56
2022-08-03T21:55:18.350Z,55.85
2022-08-03T21:57:52.267Z,55.09
2022-08-03T22:00:21.727Z,54.73
2022-08-03T22:02:54.429Z,57.82
2022-08-03T22:05:28.855Z,60.14
2022-08-03T22:08:10.128Z,58.35
2022-08-03T22:10:37.240Z,60.54
2022-08-03T22:13:04.089Z,62.14
2022-08-03T22:15:31.184Z,62.40
2022-08-03T22:18:03.619Z,62.72
2022-08-03T22:20:31.033Z,62.56
2022-08-03T22:23:02.937Z,59.68
2022-08-03T22:25:35.985Z,64.37
2022-08-03T22:28:07.498Z,64.06
2022-08-03T22:30:36.616Z,63.06
2022-08-03T22:33:11.204Z,65.24
2022-08-03T22:35:49.243Z,65.28
2022-08-03T22:38:18.589Z,68.34
2022-08-03T22:40:48.936Z,68.19
2022-08-03T22:43:16.335Z,69.67
2022-08-03T22:46:10.063Z,70.78
2022-08-03T22:48:40.638Z,68.29
2022-08-03T22:51:09.309Z,73.15
2022-08-03T22:53:36.381Z,73.34
2022-08-03T22:56:03.919Z,74.50
2022-08-03T22:58:30.695Z,74.32
2022-08-03T23:01:07.718Z,75.25
2022-08-03T23:03:58.805Z,73.62
2022-08-03T23:06:29.762Z,72.38
2022-08-03T23:08:56.811Z,72.76
2022-08-03T23:11:24.594Z,73.27
2022-08-03T23:13:54.600Z,71.28
2022-08-03T23:16:27.924Z,73.82
2022-08-03T23:18:59.073Z,72.62
2022-08-03T23:21:53.793Z,72.28
2022-08-03T23:24:26.079Z,74.52
2022-08-03T23:26:58.414Z,75.92
2022-08-03T23:29:29.337Z,74.90
2022-08-03T23:31:56.803Z,76.31
2022-08-03T23:34:42.636Z,77.27
2022-08-03T23:37:09.886Z,78.67
2022-08-03T23:39:38.116Z,77.71
2022-08-03T23:42:06.073Z,76.38
2022-08-03T23:44:37.607Z,77.90
2022-08-03T23:47:04.562Z,78.50
2022-08-03T23:49:31.501Z,79.00
2022-08-03T23:52:24.245Z,79.42
2022-08-03T23:55:13.269Z,81.31
2022-08-03T23:58:01.464Z,81.17
